createdAt,value
2023-01-27T00:00:17.369Z,4.51
2023-01-27T00:03:23.894Z,4.52
2023-01-27T00:06:30.227Z,4.49
2023-01-27T00:09:34.915Z,4.47
2023-01-27T00:12:58.899Z,4.42
2023-01-27T00:16:05.539Z,4.45
2023-01-27T00:19:11.899Z,4.45
2023-01-27T00:22:33.670Z,4.42
2023-01-27T00:25:39.987Z,4.29
2023-01-27T00:28:45.751Z,4.21
2023-01-27T00:32:10.184Z,4.15
2023-01-27T00:35:17.610Z,4.18
2023-01-27T00:38:24.047Z,4.21
2023-01-27T00:41:30.314Z,4.23
2023-01-27T00:44:36.756Z,4.16
2023-01-27T00:47:43.024Z,4.10
2023-01-27T00:50:47.781Z,4.04
2023-01-27T00:53:54.093Z,4.00
2023-01-27T00:56:58.893Z,4.04
2023-01-27T01:00:05.562Z,4.06
2023-01-27T01:03:11.995Z,4.09
2023-01-27T01:06:20.229Z,4.06
2023-01-27T01:09:26.913Z,4.02
2023-01-27T01:12:33.221Z,4.01
2023-01-27T01:15:38.507Z,3.94
2023-01-27T01:18:45.642Z,3.85
2023-01-27T01:21:52.077Z,3.76
2023-01-27T01:24:58.459Z,3.66
2023-01-27T01:28:06.114Z,3.66
2023-01-27T01:31:14.880Z,3.70
2023-01-27T01:34:21.331Z,3.74
2023-01-27T01:37:27.861Z,3.76
2023-01-27T01:40:34.575Z,3.73
2023-01-27T01:43:40.970Z,3.67
2023-01-27T01:46:47.369Z,3.61
2023-01-27T01:49:53.782Z,3.57
2023-01-27T01:52:59.569Z,3.54
2023-01-27T01:56:08.040Z,3.49
2023-01-27T01:59:18.231Z,3.41
2023-01-27T02:02:26.845Z,3.35
2023-01-27T02:05:39.297Z,3.35
2023-01-27T02:08:47.631Z,3.33
2023-01-27T02:11:54.706Z,3.31
2023-01-27T02:15:02.260Z,3.33
2023-01-27T02:18:09.449Z,3.36
2023-01-27T02:21:16.288Z,3.37
2023-01-27T02:24:25.516Z,3.34
2023-01-27T02:27:32.086Z,3.33
2023-01-27T02:30:38.742Z,3.36
2023-01-27T02:33:45.134Z,3.35
2023-01-27T02:36:52.141Z,3.31
2023-01-27T02:40:01.038Z,3.25
2023-01-27T02:43:08.006Z,3.27
2023-01-27T02:46:14.488Z,3.25
2023-01-27T02:49:20.955Z,3.25
2023-01-27T02:52:27.324Z,3.22
2023-01-27T02:55:32.097Z,3.18
2023-01-27T02:58:38.618Z,3.13
2023-01-27T03:01:45.156Z,3.19
2023-01-27T03:04:51.464Z,3.22
2023-01-27T03:07:56.264Z,3.17
2023-01-27T03:11:02.467Z,3.07
2023-01-27T03:14:10.124Z,3.04
2023-01-27T03:17:34.210Z,3.02
2023-01-27T03:20:40.892Z,2.98
2023-01-27T03:23:49.292Z,2.97
2023-01-27T03:26:55.603Z,3.00
2023-01-27T03:30:02.400Z,3.03
2023-01-27T03:33:09.777Z,3.08
2023-01-27T03:36:33.925Z,3.17
2023-01-27T03:39:57.681Z,3.27
2023-01-27T03:43:21.803Z,3.34
2023-01-27T03:46:28.258Z,3.41
2023-01-27T03:49:34.686Z,3.48
2023-01-27T03:52:41.706Z,3.52
2023-01-27T03:55:48.196Z,3.57
2023-01-27T03:58:54.466Z,3.62
2023-01-27T04:02:19.395Z,3.66
2023-01-27T04:05:43.431Z,3.70
2023-01-27T04:08:49.797Z,3.72
2023-01-27T04:11:58.793Z,3.74
2023-01-27T04:15:05.546Z,3.72
2023-01-27T04:18:12.193Z,3.70
2023-01-27T04:21:18.590Z,3.67
2023-01-27T04:24:26.198Z,3.64
2023-01-27T04:27:32.675Z,3.62
2023-01-27T04:30:39.116Z,3.65
2023-01-27T04:33:45.970Z,3.61
2023-01-27T04:36:52.433Z,3.58
2023-01-27T04:39:58.591Z,3.56
2023-01-27T04:43:05.685Z,3.56
2023-01-27T04:46:12.467Z,3.55
2023-01-27T04:49:19.520Z,3.53
2023-01-27T04:52:25.905Z,3.51
2023-01-27T04:55:32.122Z,3.49
2023-01-27T04:58:36.901Z,3.45
2023-01-27T05:01:43.373Z,3.38
2023-01-27T05:04:49.765Z,3.36
2023-01-27T05:07:56.232Z,3.29
2023-01-27T05:11:02.415Z,3.22
2023-01-27T05:14:08.855Z,3.16
2023-01-27T05:17:15.261Z,3.11
2023-01-27T05:20:21.943Z,3.09
2023-01-27T05:23:37.814Z,3.08
2023-01-27T05:26:44.139Z,3.08
2023-01-27T05:29:51.845Z,3.08
2023-01-27T05:32:58.237Z,3.08
2023-01-27T05:36:06.580Z,3.14
2023-01-27T05:39:14.526Z,3.19
2023-01-27T05:42:20.674Z,3.27
2023-01-27T05:45:26.988Z,3.34
2023-01-27T05:48:31.821Z,3.39
2023-01-27T05:51:40.924Z,3.42
2023-01-27T05:54:47.269Z,3.48
2023-01-27T05:57:51.950Z,3.52
2023-01-27T06:00:58.934Z,3.55
2023-01-27T06:04:05.846Z,3.62
2023-01-27T06:07:12.265Z,3.67
2023-01-27T06:10:19.433Z,3.68
2023-01-27T06:13:27.105Z,3.66
2023-01-27T06:16:33.475Z,3.66
2023-01-27T06:19:40.107Z,3.66
2023-01-27T06:22:46.756Z,3.68
2023-01-27T06:25:53.197Z,3.69
2023-01-27T06:29:00.524Z,3.72
2023-01-27T06:32:07.589Z,3.70
2023-01-27T06:35:14.742Z,3.63
2023-01-27T06:38:21.365Z,3.51
2023-01-27T06:41:26.202Z,3.44
2023-01-27T06:44:32.605Z,3.27
2023-01-27T06:47:38.986Z,3.23
2023-01-27T06:50:45.487Z,3.20
2023-01-27T06:53:51.924Z,3.15
2023-01-27T06:56:56.360Z,3.13
2023-01-27T07:00:02.810Z,3.11
2023-01-27T07:03:12.101Z,3.13
2023-01-27T07:06:19.166Z,3.17
2023-01-27T07:09:25.632Z,3.22
2023-01-27T07:12:32.477Z,3.27
2023-01-27T07:15:39.365Z,3.30
2023-01-27T07:18:45.751Z,3.29
2023-01-27T07:21:52.135Z,3.23
2023-01-27T07:24:57.056Z,3.17
2023-01-27T07:28:04.561Z,3.16
2023-01-27T07:31:11.374Z,3.19
2023-01-27T07:34:18.091Z,3.24
2023-01-27T07:37:24.533Z,3.29
2023-01-27T07:40:31.080Z,3.36
2023-01-27T07:43:37.530Z,3.41
2023-01-27T07:46:43.907Z,3.40
2023-01-27T07:49:48.619Z,3.44
2023-01-27T07:52:55.037Z,3.40
2023-01-27T07:56:03.487Z,3.35
2023-01-27T07:59:11.211Z,3.29
2023-01-27T08:02:17.641Z,3.26
2023-01-27T08:05:23.956Z,3.24
2023-01-27T08:08:28.645Z,3.22
2023-01-27T08:11:35.254Z,3.18
2023-01-27T08:14:41.606Z,3.20
2023-01-27T08:17:46.161Z,3.25
2023-01-27T08:20:53.257Z,3.28
2023-01-27T08:24:00.132Z,3.36
2023-01-27T08:27:08.265Z,3.43
2023-01-27T08:30:16.082Z,3.50
2023-01-27T08:33:24.211Z,3.54
2023-01-27T08:36:30.671Z,3.56
2023-01-27T08:39:37.654Z,3.60
2023-01-27T08:42:43.939Z,3.60
2023-01-27T08:45:48.488Z,3.61
2023-01-27T08:48:54.917Z,3.62
2023-01-27T08:52:01.307Z,3.65
2023-01-27T08:55:08.114Z,3.64
2023-01-27T08:58:14.550Z,3.63
2023-01-27T09:01:22.119Z,3.62
2023-01-27T09:04:30.320Z,3.62
2023-01-27T09:07:36.618Z,3.64
2023-01-27T09:10:44.169Z,3.73
2023-01-27T09:13:50.518Z,3.86
2023-01-27T09:16:55.138Z,3.99
2023-01-27T09:20:01.777Z,4.02
2023-01-27T09:23:08.201Z,4.13
2023-01-27T09:26:14.462Z,4.18
2023-01-27T09:29:19.258Z,4.19
2023-01-27T09:32:26.027Z,4.16
2023-01-27T09:35:37.898Z,4.09
2023-01-27T09:38:48.929Z,4.07
2023-01-27T09:42:18.813Z,4.03
2023-01-27T09:45:57.403Z,3.96
2023-01-27T09:49:24.120Z,3.92
2023-01-27T09:52:50.508Z,3.90
2023-01-27T09:56:03.331Z,3.91
2023-01-27T09:59:30.606Z,3.87
2023-01-27T10:03:00.970Z,3.85
2023-01-27T10:06:34.633Z,3.87
2023-01-27T10:10:03.967Z,3.83
2023-01-27T10:13:23.356Z,3.81
2023-01-27T10:16:52.184Z,3.75
2023-01-27T10:20:14.254Z,3.74
2023-01-27T10:23:33.149Z,3.71
2023-01-27T10:26:43.562Z,3.76
2023-01-27T10:29:57.876Z,3.80
2023-01-27T10:33:14.114Z,3.83
2023-01-27T10:36:27.883Z,3.88
2023-01-27T10:39:47.140Z,3.97
2023-01-27T10:43:02.192Z,4.07
2023-01-27T10:46:16.342Z,4.11
2023-01-27T10:49:27.449Z,4.13
2023-01-27T10:52:40.197Z,4.15
2023-01-27T10:55:54.257Z,4.17
2023-01-27T10:59:07.527Z,4.21
2023-01-27T11:02:24.582Z,4.26
2023-01-27T11:05:36.732Z,4.27
2023-01-27T11:08:46.801Z,4.23
2023-01-27T11:11:55.344Z,4.25
2023-01-27T11:15:03.334Z,4.27
2023-01-27T11:18:19.281Z,4.25
2023-01-27T11:21:30.526Z,4.29
2023-01-27T11:24:46.177Z,4.33
2023-01-27T11:28:21.665Z,4.34
2023-01-27T11:31:41.840Z,4.39
2023-01-27T11:34:58.846Z,4.42
2023-01-27T11:38:15.299Z,4.37
2023-01-27T11:41:22.319Z,4.33
2023-01-27T11:44:32.851Z,4.31
2023-01-27T11:47:42.814Z,4.30
2023-01-27T11:50:50.276Z,4.29
2023-01-27T11:54:06.900Z,4.31
2023-01-27T11:57:21.531Z,4.33
2023-01-27T12:00:34.407Z,4.32
2023-01-27T12:03:52.590Z,4.32
2023-01-27T12:07:04.522Z,4.33
2023-01-27T12:10:25.753Z,4.31
2023-01-27T12:13:32.040Z,4.28
2023-01-27T12:16:44.348Z,4.24
2023-01-27T12:19:50.730Z,4.15
2023-01-27T12:22:56.342Z,4.11
2023-01-27T12:26:04.021Z,4.09
2023-01-27T12:29:20.846Z,4.09
2023-01-27T12:32:35.756Z,4.07
2023-01-27T12:35:48.977Z,4.05
2023-01-27T12:38:57.640Z,4.04
2023-01-27T12:42:04.057Z,4.08
2023-01-27T12:45:35.144Z,4.13
2023-01-27T12:48:50.063Z,4.14
2023-01-27T12:51:58.230Z,4.15
2023-01-27T12:55:06.365Z,4.21
2023-01-27T12:58:32.939Z,4.20
2023-01-27T13:01:41.561Z,4.19
2023-01-27T13:04:52.928Z,4.17
2023-01-27T13:07:59.802Z,4.15
2023-01-27T13:11:06.785Z,4.15
2023-01-27T13:14:19.796Z,4.09
2023-01-27T13:17:38.002Z,4.06
2023-01-27T13:20:48.630Z,3.95
2023-01-27T13:23:57.376Z,3.88
2023-01-27T13:27:06.527Z,3.82
2023-01-27T13:30:23.117Z,3.79
2023-01-27T13:33:40.633Z,3.76
2023-01-27T13:36:50.142Z,3.76
2023-01-27T13:40:05.061Z,3.78
2023-01-27T13:43:16.691Z,3.81
2023-01-27T13:46:28.701Z,3.83
2023-01-27T13:49:42.850Z,3.84
2023-01-27T13:52:51.794Z,3.88
2023-01-27T13:56:17.214Z,3.87
2023-01-27T13:59:40.657Z,3.80
2023-01-27T14:03:00.232Z,3.78
2023-01-27T14:06:32.331Z,3.75
2023-01-27T14:09:52.149Z,3.74
2023-01-27T14:13:11.948Z,3.76
2023-01-27T14:16:26.833Z,3.77
2023-01-27T14:19:46.235Z,3.71
2023-01-27T14:23:05.695Z,3.73
2023-01-27T14:26:23.904Z,3.74
2023-01-27T14:29:37.142Z,3.76
2023-01-27T14:32:51.834Z,3.79
2023-01-27T14:36:07.337Z,3.79
2023-01-27T14:39:22.592Z,3.77
2023-01-27T14:42:38.392Z,3.67
2023-01-27T14:45:49.684Z,3.69
2023-01-27T14:49:07.831Z,3.70
2023-01-27T14:52:27.925Z,3.73
2023-01-27T14:55:45.554Z,3.75
2023-01-27T14:59:04.311Z,3.73
2023-01-27T15:02:26.602Z,3.72
2023-01-27T15:05:40.121Z,3.67
2023-01-27T15:08:55.507Z,3.61
2023-01-27T15:12:26.580Z,3.57
2023-01-27T15:15:45.615Z,3.56
2023-01-27T15:19:14.691Z,3.57
2023-01-27T15:22:44.703Z,3.57
2023-01-27T15:25:55.986Z,3.55
2023-01-27T15:29:02.999Z,3.55
2023-01-27T15:32:29.215Z,3.61
2023-01-27T15:35:44.186Z,3.68
2023-01-27T15:39:18.886Z,3.67
2023-01-27T15:42:51.794Z,3.66
2023-01-27T15:45:59.606Z,3.66
2023-01-27T15:49:14.383Z,3.60
2023-01-27T15:52:31.209Z,3.58
2023-01-27T15:55:48.847Z,3.54
2023-01-27T15:59:04.950Z,3.49
2023-01-27T16:02:16.656Z,3.46
2023-01-27T16:05:26.508Z,3.44
2023-01-27T16:08:40.176Z,3.43
2023-01-27T16:11:58.896Z,3.41
2023-01-27T16:15:23.874Z,3.40
2023-01-27T16:18:46.027Z,3.37
2023-01-27T16:21:57.845Z,3.38
2023-01-27T16:25:20.629Z,3.32
2023-01-27T16:28:30.758Z,3.31
2023-01-27T16:31:38.287Z,3.27
2023-01-27T16:34:49.279Z,3.18
2023-01-27T16:38:06.225Z,3.13
2023-01-27T16:41:22.807Z,3.12
2023-01-27T16:44:37.050Z,3.11
2023-01-27T16:47:49.848Z,3.14
2023-01-27T16:51:06.605Z,3.15
2023-01-27T16:54:25.136Z,3.24
2023-01-27T16:57:36.117Z,3.30
2023-01-27T17:00:44.852Z,3.34
2023-01-27T17:03:54.410Z,3.32
2023-01-27T17:07:13.422Z,3.32
2023-01-27T17:10:33.947Z,3.31
2023-01-27T17:13:48.732Z,3.37
2023-01-27T17:16:55.543Z,3.40
2023-01-27T17:20:06.385Z,3.45
2023-01-27T17:23:23.790Z,3.47
2023-01-27T17:26:30.675Z,3.34
2023-01-27T17:29:40.227Z,2.69
2023-01-27T17:32:51.077Z,2.21
2023-01-27T17:36:10.154Z,2.42
2023-01-27T17:39:26.767Z,2.69
2023-01-27T17:42:34.828Z,2.88
2023-01-27T17:45:43.249Z,2.99
2023-01-27T17:48:54.706Z,3.09
2023-01-27T17:52:02.388Z,3.12
2023-01-27T17:55:16.577Z,3.17
2023-01-27T17:58:27.315Z,3.23
2023-01-27T18:01:34.794Z,3.22
2023-01-27T18:04:43.723Z,3.25
2023-01-27T18:07:50.709Z,3.21
2023-01-27T18:11:12.393Z,2.65
2023-01-27T18:14:21.730Z,2.00
2023-01-27T18:17:32.121Z,1.98
2023-01-27T18:20:39.315Z,2.29
2023-01-27T18:23:48.664Z,2.53
2023-01-27T18:26:55.340Z,2.72
2023-01-27T18:30:07.647Z,2.85
2023-01-27T18:33:14.526Z,2.88
2023-01-27T18:36:26.092Z,2.96
2023-01-27T18:39:37.501Z,3.05
2023-01-27T18:42:44.758Z,3.07
2023-01-27T18:45:51.157Z,3.07
2023-01-27T18:48:59.739Z,2.59
2023-01-27T18:52:11.820Z,1.98
2023-01-27T18:55:20.607Z,1.52
2023-01-27T18:58:27.072Z,1.30
2023-01-27T19:01:35.265Z,1.64
2023-01-27T19:04:43.296Z,2.02
2023-01-27T19:07:50.078Z,2.26
2023-01-27T19:10:56.625Z,2.40
2023-01-27T19:14:03.017Z,2.50
2023-01-27T19:17:18.189Z,2.60
2023-01-27T19:20:26.674Z,2.64
2023-01-27T19:23:33.439Z,2.75
2023-01-27T19:26:39.810Z,2.82
2023-01-27T19:29:44.513Z,2.86
2023-01-27T19:32:50.915Z,2.87
2023-01-27T19:35:58.737Z,2.93
2023-01-27T19:39:15.212Z,2.95
2023-01-27T19:42:21.628Z,3.00
2023-01-27T19:45:30.117Z,3.07
2023-01-27T19:48:36.465Z,3.04
2023-01-27T19:51:41.552Z,2.49
2023-01-27T19:54:47.977Z,1.87
2023-01-27T19:57:54.852Z,1.46
2023-01-27T20:01:01.293Z,1.15
2023-01-27T20:04:07.826Z,0.99
2023-01-27T20:07:15.242Z,1.34
2023-01-27T20:10:24.295Z,1.71
2023-01-27T20:13:30.690Z,2.00
2023-01-27T20:16:37.330Z,2.20
2023-01-27T20:19:43.633Z,2.35
2023-01-27T20:22:48.615Z,2.48
2023-01-27T20:25:56.791Z,2.55
2023-01-27T20:29:03.202Z,2.63
2023-01-27T20:32:09.976Z,2.73
2023-01-27T20:35:18.207Z,2.82
2023-01-27T20:38:24.966Z,2.89
2023-01-27T20:41:31.238Z,2.93
2023-01-27T20:44:35.934Z,2.96
2023-01-27T20:47:42.630Z,2.97
2023-01-27T20:50:58.575Z,2.92
2023-01-27T20:54:05.918Z,2.88
2023-01-27T20:57:12.281Z,2.90
2023-01-27T21:00:19.839Z,2.93
2023-01-27T21:03:26.253Z,2.90
2023-01-27T21:06:32.576Z,2.94
2023-01-27T21:09:37.285Z,3.02
2023-01-27T21:12:43.528Z,3.09
2023-01-27T21:15:51.320Z,3.09
2023-01-27T21:18:57.899Z,2.56
2023-01-27T21:22:04.359Z,2.03
2023-01-27T21:25:11.585Z,1.62
2023-01-27T21:28:17.886Z,1.36
2023-01-27T21:31:24.399Z,1.63
2023-01-27T21:34:30.824Z,1.97
2023-01-27T21:37:36.232Z,2.22
2023-01-27T21:40:42.570Z,2.40
2023-01-27T21:44:04.817Z,2.53
2023-01-27T21:47:12.825Z,2.61
2023-01-27T21:50:19.883Z,2.67
2023-01-27T21:53:26.832Z,2.67
2023-01-27T21:56:33.136Z,2.71
2023-01-27T21:59:37.987Z,2.74
2023-01-27T22:02:44.599Z,2.74
2023-01-27T22:05:50.863Z,2.76
2023-01-27T22:08:55.555Z,2.78
2023-01-27T22:12:01.890Z,2.76
2023-01-27T22:15:07.424Z,2.76
2023-01-27T22:18:13.898Z,2.76
2023-01-27T22:21:20.276Z,2.83
2023-01-27T22:24:25.001Z,2.85
2023-01-27T22:27:31.310Z,2.86
2023-01-27T22:30:35.921Z,2.87
2023-01-27T22:33:42.716Z,2.86
2023-01-27T22:36:49.845Z,2.88
2023-01-27T22:39:56.020Z,2.89
2023-01-27T22:43:09.314Z,2.89
2023-01-27T22:46:15.598Z,2.94
2023-01-27T22:49:20.218Z,2.99
2023-01-27T22:52:26.560Z,2.96
2023-01-27T22:55:31.941Z,2.99
2023-01-27T22:58:38.533Z,2.99
2023-01-27T23:01:44.886Z,3.04
2023-01-27T23:04:51.266Z,3.05
2023-01-27T23:07:55.959Z,3.04
2023-01-27T23:11:05.047Z,2.98
2023-01-27T23:14:11.524Z,2.96
2023-01-27T23:17:17.911Z,2.93
2023-01-27T23:20:24.774Z,2.90
2023-01-27T23:23:31.347Z,2.91
2023-01-27T23:26:37.677Z,2.91
2023-01-27T23:29:42.365Z,2.91
2023-01-27T23:32:48.875Z,2.85
2023-01-27T23:36:00.347Z,2.80
2023-01-27T23:39:07.010Z,2.72
2023-01-27T23:42:13.350Z,2.71
2023-01-27T23:45:18.084Z,2.70
2023-01-27T23:48:25.259Z,2.66
2023-01-27T23:51:31.895Z,2.67
2023-01-27T23:54:38.317Z,2.65
2023-01-27T23:57:44.805Z,2.65
